sensor_id;sensor_type;location;lat;lon;timestamp;pressure;altitude;pressure_sealevel;temperature;humidity
19811;BME280;10065;49.632;8.346;2023-02-16T00:01:17;101759.38;;;4.96;82.63
19811;BME280;10065;49.632;8.346;2023-02-16T00:03:45;101777.25;;;4.89;82.45
19811;BME280;10065;49.632;8.346;2023-02-16T00:06:13;101769.38;;;4.89;82.58
19811;BME280;10065;49.632;8.346;2023-02-16T00:08:44;101773.53;;;4.76;83.47
19811;BME280;10065;49.632;8.346;2023-02-16T00:11:25;101770.44;;;4.85;83.60
19811;BME280;10065;49.632;8.346;2023-02-16T00:14:13;101770.16;;;4.91;83.03
19811;BME280;10065;49.632;8.346;2023-02-16T00:16:40;101763.00;;;4.93;83.01
19811;BME280;10065;49.632;8.346;2023-02-16T00:19:17;101757.00;;;4.91;82.66
19811;BME280;10065;49.632;8.346;2023-02-16T00:21:46;101744.22;;;4.84;82.41
19811;BME280;10065;49.632;8.346;2023-02-16T00:24:15;101750.81;;;4.75;82.08
19811;BME280;10065;49.632;8.346;2023-02-16T00:26:45;101750.09;;;4.56;82.82
19811;BME280;10065;49.632;8.346;2023-02-16T00:29:18;101742.34;;;4.53;83.76
19811;BME280;10065;49.632;8.346;2023-02-16T00:31:47;101750.16;;;4.72;83.30
19811;BME280;10065;49.632;8.346;2023-02-16T00:34:31;101760.34;;;4.78;82.02
19811;BME280;10065;49.632;8.346;2023-02-16T00:37:00;101768.53;;;4.72;82.43
19811;BME280;10065;49.632;8.346;2023-02-16T00:39:30;101765.06;;;4.71;82.56
19811;BME280;10065;49.632;8.346;2023-02-16T00:42:00;101770.31;;;4.71;82.58
19811;BME280;10065;49.632;8.346;2023-02-16T00:44:31;101750.28;;;4.69;82.29
19811;BME280;10065;49.632;8.346;2023-02-16T00:47:01;101755.84;;;4.80;81.74
19811;BME280;10065;49.632;8.346;2023-02-16T00:49:29;101760.59;;;4.73;81.07
19811;BME280;10065;49.632;8.346;2023-02-16T00:51:57;101759.56;;;4.59;81.94
19811;BME280;10065;49.632;8.346;2023-02-16T00:54:25;101758.56;;;4.61;82.35
19811;BME280;10065;49.632;8.346;2023-02-16T00:56:54;101753.94;;;4.49;81.48
19811;BME280;10065;49.632;8.346;2023-02-16T00:59:22;101752.72;;;4.39;82.99
19811;BME280;10065;49.632;8.346;2023-02-16T01:01:49;101747.63;;;4.53;83.05
19811;BME280;10065;49.632;8.346;2023-02-16T01:04:20;101750.94;;;4.57;82.24
19811;BME280;10065;49.632;8.346;2023-02-16T01:06:48;101747.00;;;4.48;82.62
19811;BME280;10065;49.632;8.346;2023-02-16T01:09:34;101748.09;;;4.44;83.35
19811;BME280;10065;49.632;8.346;2023-02-16T01:12:20;101758.06;;;4.37;84.01
19811;BME280;10065;49.632;8.346;2023-02-16T01:14:52;101755.03;;;4.45;84.17
19811;BME280;10065;49.632;8.346;2023-02-16T01:17:20;101757.81;;;4.42;83.88
19811;BME280;10065;49.632;8.346;2023-02-16T01:19:48;101751.16;;;4.52;82.99
19811;BME280;10065;49.632;8.346;2023-02-16T01:22:16;101754.97;;;4.46;82.85
19811;BME280;10065;49.632;8.346;2023-02-16T01:24:44;101751.25;;;4.33;83.95
19811;BME280;10065;49.632;8.346;2023-02-16T01:27:12;101755.81;;;4.47;83.72
19811;BME280;10065;49.632;8.346;2023-02-16T01:29:41;101749.94;;;4.42;83.25
19811;BME280;10065;49.632;8.346;2023-02-16T01:32:09;101755.81;;;4.47;83.58
19811;BME280;10065;49.632;8.346;2023-02-16T01:34:38;101755.44;;;4.37;83.48
19811;BME280;10065;49.632;8.346;2023-02-16T01:37:12;101753.19;;;4.47;83.46
19811;BME280;10065;49.632;8.346;2023-02-16T01:39:40;101746.16;;;4.47;82.41
19811;BME280;10065;49.632;8.346;2023-02-16T01:42:14;101743.22;;;4.36;82.45
19811;BME280;10065;49.632;8.346;2023-02-16T01:44:49;101741.13;;;4.26;82.99
19811;BME280;10065;49.632;8.346;2023-02-16T01:47:28;101737.13;;;4.19;83.54
19811;BME280;10065;49.632;8.346;2023-02-16T01:50:00;101727.84;;;4.11;82.79
19811;BME280;10065;49.632;8.346;2023-02-16T01:52:31;101732.00;;;3.98;83.23
19811;BME280;10065;49.632;8.346;2023-02-16T01:55:05;101737.09;;;3.84;83.66
19811;BME280;10065;49.632;8.346;2023-02-16T01:57:38;101743.81;;;3.71;84.32
19811;BME280;10065;49.632;8.346;2023-02-16T02:00:18;101734.66;;;3.79;84.96
19811;BME280;10065;49.632;8.346;2023-02-16T02:02:51;101726.72;;;3.81;82.90
19811;BME280;10065;49.632;8.346;2023-02-16T02:05:41;101721.66;;;3.59;81.27
19811;BME280;10065;49.632;8.346;2023-02-16T02:08:13;101722.38;;;3.44;82.80
19811;BME280;10065;49.632;8.346;2023-02-16T02:10:51;101734.78;;;3.40;82.46
19811;BME280;10065;49.632;8.346;2023-02-16T02:13:26;101731.81;;;3.29;82.46
19811;BME280;10065;49.632;8.346;2023-02-16T02:15:58;101721.75;;;3.39;82.44
19811;BME280;10065;49.632;8.346;2023-02-16T02:18:26;101722.25;;;3.28;82.09
19811;BME280;10065;49.632;8.346;2023-02-16T02:21:08;101727.28;;;3.33;81.85
19811;BME280;10065;49.632;8.346;2023-02-16T02:27:06;101729.19;;;3.29;81.94
19811;BME280;10065;49.632;8.346;2023-02-16T02:32:49;101728.50;;;3.07;82.47
19811;BME280;10065;49.632;8.346;2023-02-16T02:35:28;101730.53;;;3.19;82.95
19811;BME280;10065;49.632;8.346;2023-02-16T02:38:05;101734.16;;;3.35;82.19
19811;BME280;10065;49.632;8.346;2023-02-16T02:40:44;101736.00;;;3.33;81.44
19811;BME280;10065;49.632;8.346;2023-02-16T02:43:19;101728.75;;;3.38;81.24
19811;BME280;10065;49.632;8.346;2023-02-16T02:45:53;101727.78;;;3.22;81.49
19811;BME280;10065;49.632;8.346;2023-02-16T02:48:22;101725.03;;;3.25;82.41
19811;BME280;10065;49.632;8.346;2023-02-16T02:50:51;101713.25;;;3.34;80.98
19811;BME280;10065;49.632;8.346;2023-02-16T02:53:40;101721.31;;;3.29;81.54
19811;BME280;10065;49.632;8.346;2023-02-16T02:56:11;101712.25;;;3.36;81.33
19811;BME280;10065;49.632;8.346;2023-02-16T02:59:03;101721.63;;;3.42;80.14
19811;BME280;10065;49.632;8.346;2023-02-16T03:01:54;101718.34;;;3.18;79.60
19811;BME280;10065;49.632;8.346;2023-02-16T03:04:26;101721.97;;;2.97;81.11
19811;BME280;10065;49.632;8.346;2023-02-16T03:06:56;101717.94;;;2.90;83.14
19811;BME280;10065;49.632;8.346;2023-02-16T03:09:25;101718.63;;;2.93;83.07
19811;BME280;10065;49.632;8.346;2023-02-16T03:11:53;101720.31;;;2.94;83.21
19811;BME280;10065;49.632;8.346;2023-02-16T03:14:43;101717.94;;;2.90;82.76
19811;BME280;10065;49.632;8.346;2023-02-16T03:17:16;101716.75;;;2.77;82.97
19811;BME280;10065;49.632;8.346;2023-02-16T03:20:04;101730.94;;;2.73;84.25
19811;BME280;10065;49.632;8.346;2023-02-16T03:22:50;101725.69;;;2.73;84.51
19811;BME280;10065;49.632;8.346;2023-02-16T03:25:37;101725.44;;;2.97;84.40
19811;BME280;10065;49.632;8.346;2023-02-16T03:28:24;101721.91;;;2.98;83.07
19811;BME280;10065;49.632;8.346;2023-02-16T03:31:17;101714.66;;;3.03;82.69
19811;BME280;10065;49.632;8.346;2023-02-16T03:33:46;101723.88;;;3.12;82.55
19811;BME280;10065;49.632;8.346;2023-02-16T03:36:20;101726.50;;;3.12;82.28
19811;BME280;10065;49.632;8.346;2023-02-16T03:38:48;101718.56;;;3.14;81.55
19811;BME280;10065;49.632;8.346;2023-02-16T03:41:16;101729.31;;;3.26;80.77
19811;BME280;10065;49.632;8.346;2023-02-16T03:43:43;101720.06;;;3.19;79.97
19811;BME280;10065;49.632;8.346;2023-02-16T03:46:12;101713.63;;;3.08;80.24
19811;BME280;10065;49.632;8.346;2023-02-16T03:48:40;101720.13;;;2.99;81.07
19811;BME280;10065;49.632;8.346;2023-02-16T03:51:08;101722.75;;;2.99;81.88
19811;BME280;10065;49.632;8.346;2023-02-16T03:53:36;101731.88;;;3.09;81.83
19811;BME280;10065;49.632;8.346;2023-02-16T03:56:03;101722.19;;;3.11;81.56
19811;BME280;10065;49.632;8.346;2023-02-16T03:58:31;101727.66;;;3.07;81.12
19811;BME280;10065;49.632;8.346;2023-02-16T04:00:59;101735.50;;;3.07;81.68
19811;BME280;10065;49.632;8.346;2023-02-16T04:03:29;101737.91;;;3.11;80.47
19811;BME280;10065;49.632;8.346;2023-02-16T04:05:57;101742.44;;;3.08;81.10
19811;BME280;10065;49.632;8.346;2023-02-16T04:08:26;101739.97;;;3.05;81.21
19811;BME280;10065;49.632;8.346;2023-02-16T04:10:54;101729.44;;;2.86;81.38
19811;BME280;10065;49.632;8.346;2023-02-16T04:13:23;101735.09;;;2.77;81.54
19811;BME280;10065;49.632;8.346;2023-02-16T04:15:49;101722.41;;;2.68;83.25
19811;BME280;10065;49.632;8.346;2023-02-16T04:18:19;101723.31;;;2.67;82.42
19811;BME280;10065;49.632;8.346;2023-02-16T04:20:48;101717.97;;;2.49;83.59
19811;BME280;10065;49.632;8.346;2023-02-16T04:23:15;101718.16;;;2.45;83.71
19811;BME280;10065;49.632;8.346;2023-02-16T04:25:43;101726.59;;;2.51;84.49
19811;BME280;10065;49.632;8.346;2023-02-16T04:28:13;101729.63;;;2.62;84.55
19811;BME280;10065;49.632;8.346;2023-02-16T04:30:41;101721.06;;;2.78;83.62
19811;BME280;10065;49.632;8.346;2023-02-16T04:33:09;101724.94;;;2.89;83.25
19811;BME280;10065;49.632;8.346;2023-02-16T04:35:36;101726.19;;;2.99;82.69
19811;BME280;10065;49.632;8.346;2023-02-16T04:38:08;101721.91;;;2.98;82.12
19811;BME280;10065;49.632;8.346;2023-02-16T04:40:35;101726.41;;;2.95;81.98
19811;BME280;10065;49.632;8.346;2023-02-16T04:43:03;101727.28;;;2.95;82.03
19811;BME280;10065;49.632;8.346;2023-02-16T04:45:31;101726.28;;;2.98;81.83
19811;BME280;10065;49.632;8.346;2023-02-16T04:47:59;101721.38;;;2.72;83.16
19811;BME280;10065;49.632;8.346;2023-02-16T04:50:26;101724.91;;;2.71;84.01
19811;BME280;10065;49.632;8.346;2023-02-16T04:52:54;101729.41;;;2.67;84.77
19811;BME280;10065;49.632;8.346;2023-02-16T04:55:23;101733.59;;;2.71;84.37
19811;BME280;10065;49.632;8.346;2023-02-16T04:57:51;101726.09;;;2.63;84.72
19811;BME280;10065;49.632;8.346;2023-02-16T05:00:19;101735.09;;;2.56;84.62
19811;BME280;10065;49.632;8.346;2023-02-16T05:02:47;101724.78;;;2.53;84.20
19811;BME280;10065;49.632;8.346;2023-02-16T05:05:14;101717.84;;;2.52;84.62
19811;BME280;10065;49.632;8.346;2023-02-16T05:07:42;101718.75;;;2.51;84.29
19811;BME280;10065;49.632;8.346;2023-02-16T05:10:10;101710.66;;;2.37;84.59
19811;BME280;10065;49.632;8.346;2023-02-16T05:12:39;101708.28;;;2.31;84.67
19811;BME280;10065;49.632;8.346;2023-02-16T05:15:24;101706.69;;;2.07;85.98
19811;BME280;10065;49.632;8.346;2023-02-16T05:17:52;101712.72;;;2.09;86.58
19811;BME280;10065;49.632;8.346;2023-02-16T05:20:19;101714.06;;;2.19;86.79
19811;BME280;10065;49.632;8.346;2023-02-16T05:23:07;101717.31;;;2.24;85.46
19811;BME280;10065;49.632;8.346;2023-02-16T05:25:35;101727.91;;;2.21;85.10
19811;BME280;10065;49.632;8.346;2023-02-16T05:28:04;101724.78;;;2.33;85.96
19811;BME280;10065;49.632;8.346;2023-02-16T05:30:32;101726.94;;;2.44;84.70
19811;BME280;10065;49.632;8.346;2023-02-16T05:33:00;101721.94;;;2.38;84.22
19811;BME280;10065;49.632;8.346;2023-02-16T05:35:27;101723.47;;;2.43;84.94
19811;BME280;10065;49.632;8.346;2023-02-16T05:37:55;101729.88;;;2.56;85.00
19811;BME280;10065;49.632;8.346;2023-02-16T05:40:23;101735.16;;;2.75;84.21
19811;BME280;10065;49.632;8.346;2023-02-16T05:42:51;101739.88;;;2.87;82.91
19811;BME280;10065;49.632;8.346;2023-02-16T05:45:21;101737.53;;;3.00;81.93
19811;BME280;10065;49.632;8.346;2023-02-16T05:47:48;101736.47;;;3.04;81.32
19811;BME280;10065;49.632;8.346;2023-02-16T05:50:18;101743.28;;;3.08;81.20
19811;BME280;10065;49.632;8.346;2023-02-16T05:52:46;101734.44;;;3.11;80.50
19811;BME280;10065;49.632;8.346;2023-02-16T05:55:14;101742.13;;;2.95;80.28
19811;BME280;10065;49.632;8.346;2023-02-16T05:57:41;101729.06;;;2.75;81.05
19811;BME280;10065;49.632;8.346;2023-02-16T06:00:10;101731.03;;;2.70;82.02
19811;BME280;10065;49.632;8.346;2023-02-16T06:02:40;101732.03;;;2.67;82.20
19811;BME280;10065;49.632;8.346;2023-02-16T06:05:07;101730.13;;;2.71;82.12
19811;BME280;10065;49.632;8.346;2023-02-16T06:07:35;101738.25;;;2.64;82.05
19811;BME280;10065;49.632;8.346;2023-02-16T06:10:03;101739.69;;;2.72;82.72
19811;BME280;10065;49.632;8.346;2023-02-16T06:12:31;101749.16;;;2.74;82.28
19811;BME280;10065;49.632;8.346;2023-02-16T06:15:00;101750.94;;;2.74;83.05
19811;BME280;10065;49.632;8.346;2023-02-16T06:17:27;101750.28;;;2.89;83.17
19811;BME280;10065;49.632;8.346;2023-02-16T06:19:56;101749.25;;;3.12;82.02
19811;BME280;10065;49.632;8.346;2023-02-16T06:22:24;101755.72;;;3.23;80.63
19811;BME280;10065;49.632;8.346;2023-02-16T06:24:52;101762.16;;;3.16;80.11
19811;BME280;10065;49.632;8.346;2023-02-16T06:27:19;101760.56;;;3.12;79.76
19811;BME280;10065;49.632;8.346;2023-02-16T06:29:47;101758.03;;;2.90;80.54
19811;BME280;10065;49.632;8.346;2023-02-16T06:32:15;101759.84;;;2.90;81.54
19811;BME280;10065;49.632;8.346;2023-02-16T06:34:43;101754.31;;;2.96;81.74
19811;BME280;10065;49.632;8.346;2023-02-16T06:37:12;101764.47;;;3.03;81.47
19811;BME280;10065;49.632;8.346;2023-02-16T06:39:40;101764.41;;;3.05;80.62
19811;BME280;10065;49.632;8.346;2023-02-16T06:42:08;101774.72;;;3.08;80.75
19811;BME280;10065;49.632;8.346;2023-02-16T06:44:36;101775.16;;;2.99;79.59
19811;BME280;10065;49.632;8.346;2023-02-16T06:47:04;101782.31;;;2.75;81.48
19811;BME280;10065;49.632;8.346;2023-02-16T06:49:32;101783.44;;;2.70;82.00
19811;BME280;10065;49.632;8.346;2023-02-16T06:52:00;101778.72;;;2.57;82.87
19811;BME280;10065;49.632;8.346;2023-02-16T06:54:29;101781.28;;;2.59;83.35
19811;BME280;10065;49.632;8.346;2023-02-16T06:56:57;101782.19;;;2.58;84.09
19811;BME280;10065;49.632;8.346;2023-02-16T06:59:24;101784.28;;;2.70;83.61
19811;BME280;10065;49.632;8.346;2023-02-16T07:01:52;101785.50;;;2.82;83.56
19811;BME280;10065;49.632;8.346;2023-02-16T07:04:20;101781.72;;;2.89;83.05
19811;BME280;10065;49.632;8.346;2023-02-16T07:06:48;101783.56;;;2.87;81.73
19811;BME280;10065;49.632;8.346;2023-02-16T07:09:15;101784.34;;;2.89;82.12
19811;BME280;10065;49.632;8.346;2023-02-16T07:11:45;101781.31;;;2.98;82.30
19811;BME280;10065;49.632;8.346;2023-02-16T07:14:12;101792.25;;;3.08;82.04
19811;BME280;10065;49.632;8.346;2023-02-16T07:16:41;101785.38;;;3.05;80.80
19811;BME280;10065;49.632;8.346;2023-02-16T07:19:08;101782.22;;;2.97;81.65
19811;BME280;10065;49.632;8.346;2023-02-16T07:21:36;101777.53;;;2.85;82.07
19811;BME280;10065;49.632;8.346;2023-02-16T07:24:04;101778.06;;;2.73;82.82
19811;BME280;10065;49.632;8.346;2023-02-16T07:26:32;101770.56;;;2.84;83.22
19811;BME280;10065;49.632;8.346;2023-02-16T07:29:01;101777.41;;;2.88;82.83
19811;BME280;10065;49.632;8.346;2023-02-16T07:31:29;101776.72;;;2.83;83.52
19811;BME280;10065;49.632;8.346;2023-02-16T07:33:57;101770.97;;;2.95;83.60
19811;BME280;10065;49.632;8.346;2023-02-16T07:36:25;101764.41;;;2.85;83.60
19811;BME280;10065;49.632;8.346;2023-02-16T07:38:52;101776.13;;;2.96;83.89
19811;BME280;10065;49.632;8.346;2023-02-16T07:41:20;101769.94;;;2.99;83.46
19811;BME280;10065;49.632;8.346;2023-02-16T07:43:48;101778.41;;;3.04;83.59
19811;BME280;10065;49.632;8.346;2023-02-16T07:46:17;101774.03;;;3.05;83.49
19811;BME280;10065;49.632;8.346;2023-02-16T07:48:46;101785.75;;;3.16;83.36
19811;BME280;10065;49.632;8.346;2023-02-16T07:51:19;101794.44;;;3.35;82.73
19811;BME280;10065;49.632;8.346;2023-02-16T07:53:47;101798.53;;;3.43;81.83
19811;BME280;10065;49.632;8.346;2023-02-16T07:56:22;101797.75;;;3.59;81.12
19811;BME280;10065;49.632;8.346;2023-02-16T07:58:50;101798.84;;;3.54;81.07
19811;BME280;10065;49.632;8.346;2023-02-16T08:01:20;101784.34;;;3.47;81.06
19811;BME280;10065;49.632;8.346;2023-02-16T08:03:48;101793.59;;;3.35;81.95
19811;BME280;10065;49.632;8.346;2023-02-16T08:06:16;101799.69;;;3.35;82.33
19811;BME280;10065;49.632;8.346;2023-02-16T08:08:44;101802.13;;;3.40;82.57
19811;BME280;10065;49.632;8.346;2023-02-16T08:11:14;101801.72;;;3.49;81.81
19811;BME280;10065;49.632;8.346;2023-02-16T08:13:43;101793.59;;;3.54;82.04
19811;BME280;10065;49.632;8.346;2023-02-16T08:16:13;101787.81;;;3.47;81.98
19811;BME280;10065;49.632;8.346;2023-02-16T08:18:43;101791.78;;;3.56;82.41
19811;BME280;10065;49.632;8.346;2023-02-16T08:21:12;101781.72;;;3.65;81.44
19811;BME280;10065;49.632;8.346;2023-02-16T08:23:41;101778.16;;;3.48;81.63
19811;BME280;10065;49.632;8.346;2023-02-16T08:26:14;101799.16;;;3.48;82.78
19811;BME280;10065;49.632;8.346;2023-02-16T08:28:43;101792.06;;;3.50;81.63
19811;BME280;10065;49.632;8.346;2023-02-16T08:31:12;101790.50;;;3.46;82.29
19811;BME280;10065;49.632;8.346;2023-02-16T08:33:40;101790.91;;;3.36;82.74
19811;BME280;10065;49.632;8.346;2023-02-16T08:36:16;101792.91;;;3.31;83.52
19811;BME280;10065;49.632;8.346;2023-02-16T08:38:44;101791.06;;;3.33;83.75
19811;BME280;10065;49.632;8.346;2023-02-16T08:41:15;101788.94;;;3.42;83.58
19811;BME280;10065;49.632;8.346;2023-02-16T08:43:43;101781.78;;;3.45;83.45
19811;BME280;10065;49.632;8.346;2023-02-16T08:46:11;101777.03;;;3.53;83.22
19811;BME280;10065;49.632;8.346;2023-02-16T08:48:38;101783.13;;;3.54;82.57
19811;BME280;10065;49.632;8.346;2023-02-16T08:51:06;101800.28;;;3.61;82.79
19811;BME280;10065;49.632;8.346;2023-02-16T08:53:36;101798.66;;;3.58;82.28
19811;BME280;10065;49.632;8.346;2023-02-16T08:56:04;101801.28;;;3.58;82.79
19811;BME280;10065;49.632;8.346;2023-02-16T08:58:32;101802.34;;;3.54;83.00
19811;BME280;10065;49.632;8.346;2023-02-16T09:01:03;101795.31;;;3.55;82.87
19811;BME280;10065;49.632;8.346;2023-02-16T09:03:31;101800.00;;;3.48;83.24
19811;BME280;10065;49.632;8.346;2023-02-16T09:06:00;101794.69;;;3.50;83.75
19811;BME280;10065;49.632;8.346;2023-02-16T09:08:30;101813.69;;;3.73;83.24
19811;BME280;10065;49.632;8.346;2023-02-16T09:11:01;101803.38;;;3.88;82.58
19811;BME280;10065;49.632;8.346;2023-02-16T09:13:29;101800.69;;;3.89;82.26
19811;BME280;10065;49.632;8.346;2023-02-16T09:16:01;101804.38;;;4.04;81.96
19811;BME280;10065;49.632;8.346;2023-02-16T09:18:29;101803.06;;;4.12;80.84
19811;BME280;10065;49.632;8.346;2023-02-16T09:21:02;101799.72;;;4.09;80.92
19811;BME280;10065;49.632;8.346;2023-02-16T09:23:32;101810.28;;;4.07;80.99
19811;BME280;10065;49.632;8.346;2023-02-16T09:26:03;101814.41;;;4.13;81.31
19811;BME280;10065;49.632;8.346;2023-02-16T09:28:33;101811.25;;;4.24;80.35
19811;BME280;10065;49.632;8.346;2023-02-16T09:31:07;101806.75;;;4.08;80.96
19811;BME280;10065;49.632;8.346;2023-02-16T09:33:37;101796.03;;;4.13;81.17
19811;BME280;10065;49.632;8.346;2023-02-16T09:36:06;101800.84;;;4.22;80.64
19811;BME280;10065;49.632;8.346;2023-02-16T09:38:35;101804.63;;;4.34;80.15
19811;BME280;10065;49.632;8.346;2023-02-16T09:41:10;101807.69;;;4.25;80.13
19811;BME280;10065;49.632;8.346;2023-02-16T09:43:45;101801.34;;;4.11;80.61
19811;BME280;10065;49.632;8.346;2023-02-16T09:46:19;101814.50;;;4.29;80.66
19811;BME280;10065;49.632;8.346;2023-02-16T09:48:48;101794.19;;;4.49;80.15
19811;BME280;10065;49.632;8.346;2023-02-16T09:51:19;101800.16;;;4.70;79.70
19811;BME280;10065;49.632;8.346;2023-02-16T09:54:01;101797.50;;;4.87;79.60
19811;BME280;10065;49.632;8.346;2023-02-16T09:56:36;101795.22;;;5.14;78.32
19811;BME280;10065;49.632;8.346;2023-02-16T09:59:11;101797.00;;;5.14;76.61
19811;BME280;10065;49.632;8.346;2023-02-16T10:01:43;101794.03;;;4.87;77.19
19811;BME280;10065;49.632;8.346;2023-02-16T10:04:25;101790.22;;;4.92;77.69
19811;BME280;10065;49.632;8.346;2023-02-16T10:07:04;101792.09;;;4.90;77.40
19811;BME280;10065;49.632;8.346;2023-02-16T10:09:41;101794.81;;;4.89;78.57
19811;BME280;10065;49.632;8.346;2023-02-16T10:12:17;101787.25;;;5.16;78.49
19811;BME280;10065;49.632;8.346;2023-02-16T10:14:48;101792.31;;;5.52;76.69
19811;BME280;10065;49.632;8.346;2023-02-16T10:17:22;101788.63;;;5.54;75.68
19811;BME280;10065;49.632;8.346;2023-02-16T10:19:56;101796.31;;;5.59;75.64
19811;BME280;10065;49.632;8.346;2023-02-16T10:22:29;101788.06;;;5.65;75.36
19811;BME280;10065;49.632;8.346;2023-02-16T10:25:02;101774.56;;;5.55;75.09
19811;BME280;10065;49.632;8.346;2023-02-16T10:27:36;101777.97;;;5.57;75.17
19811;BME280;10065;49.632;8.346;2023-02-16T10:30:12;101780.25;;;5.63;75.51
19811;BME280;10065;49.632;8.346;2023-02-16T10:32:53;101779.50;;;5.77;75.18
19811;BME280;10065;49.632;8.346;2023-02-16T10:35:30;101774.66;;;5.70;75.53
19811;BME280;10065;49.632;8.346;2023-02-16T10:38:11;101770.75;;;5.77;75.49
19811;BME280;10065;49.632;8.346;2023-02-16T10:40:49;101768.34;;;5.72;75.35
19811;BME280;10065;49.632;8.346;2023-02-16T10:43:24;101766.25;;;5.79;75.54
19811;BME280;10065;49.632;8.346;2023-02-16T10:45:57;101761.72;;;5.81;75.87
19811;BME280;10065;49.632;8.346;2023-02-16T10:48:25;101755.69;;;6.10;75.61
19811;BME280;10065;49.632;8.346;2023-02-16T10:50:56;101752.84;;;6.87;73.22
19811;BME280;10065;49.632;8.346;2023-02-16T10:53:34;101749.06;;;7.34;69.67
19811;BME280;10065;49.632;8.346;2023-02-16T10:56:22;101749.97;;;7.20;69.45
19811;BME280;10065;49.632;8.346;2023-02-16T10:58:53;101746.94;;;6.84;70.21
19811;BME280;10065;49.632;8.346;2023-02-16T11:01:30;101747.03;;;6.68;71.55
19811;BME280;10065;49.632;8.346;2023-02-16T11:04:03;101742.50;;;6.98;71.46
19811;BME280;10065;49.632;8.346;2023-02-16T11:06:31;101747.16;;;7.50;70.23
19811;BME280;10065;49.632;8.346;2023-02-16T11:09:02;101746.16;;;8.19;68.87
19811;BME280;10065;49.632;8.346;2023-02-16T11:11:35;101735.13;;;9.40;65.32
19811;BME280;10065;49.632;8.346;2023-02-16T11:14:07;101721.03;;;10.11;60.73
19811;BME280;10065;49.632;8.346;2023-02-16T11:16:45;101733.28;;;10.93;59.11
19811;BME280;10065;49.632;8.346;2023-02-16T11:19:19;101725.25;;;11.83;55.24
19811;BME280;10065;49.632;8.346;2023-02-16T11:21:49;101711.78;;;13.39;51.42
19811;BME280;10065;49.632;8.346;2023-02-16T11:24:24;101713.53;;;13.69;48.59
19811;BME280;10065;49.632;8.346;2023-02-16T11:27:01;101714.31;;;13.41;49.02
19811;BME280;10065;49.632;8.346;2023-02-16T11:29:31;101704.66;;;13.09;49.95
19811;BME280;10065;49.632;8.346;2023-02-16T11:32:04;101687.53;;;13.42;48.83
19811;BME280;10065;49.632;8.346;2023-02-16T11:34:34;101682.13;;;13.63;49.01
19811;BME280;10065;49.632;8.346;2023-02-16T11:37:11;101676.19;;;13.50;49.87
19811;BME280;10065;49.632;8.346;2023-02-16T11:39:47;101676.56;;;12.96;50.41
19811;BME280;10065;49.632;8.346;2023-02-16T11:42:28;101682.09;;;12.53;52.22
19811;BME280;10065;49.632;8.346;2023-02-16T11:44:59;101685.94;;;12.18;52.92
19811;BME280;10065;49.632;8.346;2023-02-16T11:47:30;101676.72;;;11.69;54.26
19811;BME280;10065;49.632;8.346;2023-02-16T11:50:17;101675.88;;;11.04;56.55
19811;BME280;10065;49.632;8.346;2023-02-16T11:52:46;101673.94;;;10.61;58.40
19811;BME280;10065;49.632;8.346;2023-02-16T11:55:22;101670.41;;;10.03;60.15
19811;BME280;10065;49.632;8.346;2023-02-16T11:57:52;101677.59;;;9.90;61.79
19811;BME280;10065;49.632;8.346;2023-02-16T12:00:24;101662.31;;;9.70;61.51
19811;BME280;10065;49.632;8.346;2023-02-16T12:03:23;101668.41;;;9.59;61.64
19811;BME280;10065;49.632;8.346;2023-02-16T12:06:07;101668.19;;;9.38;63.06
19811;BME280;10065;49.632;8.346;2023-02-16T12:08:51;101664.22;;;9.20;63.77
19811;BME280;10065;49.632;8.346;2023-02-16T12:11:29;101669.13;;;9.01;65.05
19811;BME280;10065;49.632;8.346;2023-02-16T12:14:14;101664.31;;;8.70;67.60
19811;BME280;10065;49.632;8.346;2023-02-16T12:16:52;101660.72;;;8.58;68.49
19811;BME280;10065;49.632;8.346;2023-02-16T12:19:35;101652.34;;;8.77;68.25
19811;BME280;10065;49.632;8.346;2023-02-16T12:22:14;101649.66;;;9.02;67.81
19811;BME280;10065;49.632;8.346;2023-02-16T12:24:55;101652.81;;;9.43;65.73
19811;BME280;10065;49.632;8.346;2023-02-16T12:27:29;101643.66;;;9.71;64.67
19811;BME280;10065;49.632;8.346;2023-02-16T12:30:02;101635.34;;;10.00;63.31
19811;BME280;10065;49.632;8.346;2023-02-16T12:32:47;101635.25;;;10.12;62.14
19811;BME280;10065;49.632;8.346;2023-02-16T12:35:40;101634.53;;;10.10;63.63
19811;BME280;10065;49.632;8.346;2023-02-16T12:38:19;101629.69;;;9.93;63.67
19811;BME280;10065;49.632;8.346;2023-02-16T12:41:01;101631.59;;;9.91;63.44
19811;BME280;10065;49.632;8.346;2023-02-16T12:43:36;101627.47;;;9.87;64.11
19811;BME280;10065;49.632;8.346;2023-02-16T12:46:11;101625.66;;;9.88;63.42
19811;BME280;10065;49.632;8.346;2023-02-16T12:48:47;101625.50;;;9.78;63.32
19811;BME280;10065;49.632;8.346;2023-02-16T12:51:20;101619.66;;;9.62;63.54
19811;BME280;10065;49.632;8.346;2023-02-16T12:53:56;101615.44;;;9.59;64.67
19811;BME280;10065;49.632;8.346;2023-02-16T12:56:28;101607.28;;;9.62;65.92
19811;BME280;10065;49.632;8.346;2023-02-16T12:59:12;101608.31;;;9.84;65.15
19811;BME280;10065;49.632;8.346;2023-02-16T13:01:42;101609.47;;;10.14;64.36
19811;BME280;10065;49.632;8.346;2023-02-16T13:04:17;101599.66;;;10.39;62.60
19811;BME280;10065;49.632;8.346;2023-02-16T13:06:52;101600.97;;;10.55;62.33
19811;BME280;10065;49.632;8.346;2023-02-16T13:09:31;101594.72;;;10.56;61.70
19811;BME280;10065;49.632;8.346;2023-02-16T13:12:07;101595.81;;;10.43;62.94
19811;BME280;10065;49.632;8.346;2023-02-16T13:14:41;101578.69;;;10.25;63.84
19811;BME280;10065;49.632;8.346;2023-02-16T13:17:14;101585.38;;;10.06;64.73
19811;BME280;10065;49.632;8.346;2023-02-16T13:19:45;101579.88;;;9.86;64.80
19811;BME280;10065;49.632;8.346;2023-02-16T13:22:35;101580.47;;;9.67;64.44
19811;BME280;10065;49.632;8.346;2023-02-16T13:25:34;101583.28;;;9.53;66.44
19811;BME280;10065;49.632;8.346;2023-02-16T13:28:15;101568.81;;;9.46;67.63
19811;BME280;10065;49.632;8.346;2023-02-16T13:31:05;101571.94;;;9.39;67.40
19811;BME280;10065;49.632;8.346;2023-02-16T13:33:48;101557.84;;;9.39;67.56